ADDS METAR Data INFO
IDs: Format: Raw Decoded Include TAF

Data at: 2256 UTC 22 Jun 2018

KPRC 222253Z 25007G17KT 220V290 10SM CLR 36/M08 A3000 RMK AO2 PK WND 27027/2210 WSHFT 2237 SLP062 T03561078
KPRC 222153Z 19007KT 10SM CLR 35/M07 A3002 RMK AO2 SLP067 T03501072
KPRC 222053Z 25009G17KT 210V290 10SM CLR 35/M07 A3004 RMK AO2 SLP073 T03501072 58013
KPRC 221953Z 23010G18KT 10SM CLR 35/M08 A3005 RMK AO2 SLP077 T03501083
KPRC 221853Z 24010G16KT 210V290 10SM CLR 34/M09 A3007 RMK AO2 SLP082 T03391089
KPRC 221753Z 22009KT 10SM CLR 33/M05 A3008 RMK AO2 SLP084 T03331050 10333 20167 58005
KPRC 221738Z VRB05KT 10SM CLR 33/M06 A3008 RMK AO2 T03281061
KPRC 221653Z VRB03KT 10SM CLR 32/M04 A3009 RMK AO2 SLP088 T03221044
KPRC 221553Z 00000KT 10SM CLR 30/M03 A3010 RMK AO2 SLP091 T03001028
KPRC 221453Z 15003KT 10SM CLR 27/M02 A3010 RMK AO2 SLP091 T02671022 51005
KPRC 221353Z 20003KT 10SM CLR 21/01 A3010 RMK AO2 SLP095 T02110006
KPRC 221253Z 19007KT 10SM CLR 17/00 A3009 RMK AO2 SLP097 T01670000
KPRC 221153Z AUTO 19009KT 10SM CLR 18/M02 A3008 RMK AO2 SLP089 T01831017 10244 20161 50001
KPRC 221053Z AUTO 20004KT 10SM CLR 17/00 A3008 RMK AO2 SLP090 T01670000
KPRC 220953Z AUTO 20004KT 10SM CLR 18/M01 A3008 RMK AO2 SLP087 T01831006
KPRC 220853Z AUTO 00000KT 10SM CLR 19/M01 A3008 RMK AO2 SLP085 T01941011 55002
KPRC 220753Z AUTO 00000KT 10SM CLR 21/M02 A3008 RMK AO2 SLP083 T02061017
KPRC 220653Z AUTO 19005KT 10SM CLR 22/00 A3008 RMK AO2 SLP084 T02220000 403670156
KPRC 220553Z AUTO 19008KT 10SM CLR 24/M02 A3008 RMK AO2 SLP085 T02441017 10350 20244 50003
KPRC 220453Z AUTO 20007KT 10SM CLR 26/M02 A3009 RMK AO2 SLP088 T02561022
KPRC 220353Z 19008KT 10SM CLR 27/M02 A3009 RMK AO2 SLP086 T02721022
KPRC 220253Z 22008KT 10SM CLR 30/M03 A3008 RMK AO2 SLP083 T03001033 53000
KPRC 220153Z 24013KT 10SM CLR 33/M03 A3007 RMK AO2 SLP085 T03281033
KPRC 220053Z 23012KT 10SM CLR 34/M03 A3007 RMK AO2 SLP086 T03441033
KPRC 212353Z 22012KT 10SM CLR 35/M04 A3007 RMK AO2 SLP089 T03501039 10367 20328 56011
KPRC 212253Z AUTO 25015G20KT 210V270 10SM CLR 36/M03 A3008 RMK AO2 SLP093 T03611033
KPRC 212153Z AUTO 26007G22KT 210V290 10SM CLR 36/M03 A3010 RMK AO2 SLP094 T03611033
KPRC 212053Z 30008G16KT 10SM CLR 36/M04 A3011 RMK AO2 SLP098 T03611039 58013
KPRC 211953Z 00000KT 10SM CLR 36/M03 A3013 RMK AO2 SLP100 T03561033
KPRC 211853Z 36009KT 10SM CLR 35/M03 A3014 RMK AO2 SLP104 T03501033
KPRC 211753Z VRB03KT 10SM CLR 33/M03 A3016 RMK AO2 SLP109 T03281033 10333 20156 57005
KPRC 211653Z 33006KT 10SM CLR 32/M03 A3016 RMK AO2 SLP110 T03221028
KPRC 211553Z 03003KT 10SM CLR 29/M01 A3017 RMK AO2 SLP115 T02891011
KPRC 211453Z 05003KT 10SM CLR 27/M01 A3017 RMK AO2 SLP116 T02671011 51010
KPRC 211353Z 00000KT 10SM CLR 22/02 A3016 RMK AO2 SLP116 T02170017
KPRC 211253Z 19007KT 10SM CLR 17/02 A3015 RMK AO2 SLP117 T01720017
KPRC 211153Z AUTO 18005KT 10SM CLR 17/02 A3014 RMK AO2 SLP111 T01670017 10256 20156 53006